Terminal Aerodrome Forecast
Issued by NWS

Home | Current Version | Previous Version | Text Only | Print | Product List | Glossary On
Versions: 1 2 3 4 5 6 7 8 9 10 11 12 13 14 15 16
000
FTAK31 PAFA 220540
TAFASC
TAF
PASC 220540Z 2206/2306 08020G30KT P6SM SCT009 BKN015
     FM221200 08018G28KT P6SM VCSH BKN008 OVC015
     FM222100 08015G25KT P6SM -SHSN SCT008 OVC012=

USA.gov is the U.S. government's official web portal to all federal, state and local government web resources and services.